Grand Marais, Minnesota
Current Conditions -  °F | °C
As of 1:34 PM on Friday 24 Oct 2014 (Local Time) from KCKC Reporting Station
Clear Clear  
Wind Chill: 54°   Ceiling: Unl
Heat Index: 54°   Visibility: 10mi
Dew Point: 45°   Wind: 8mph
Humidity: 72%   Direction: 200°SSW
Pressure: 29.79"   Gusts: NA
Location:  47.75°N, 90.33°W
Report Text: KCKC 241834Z AUTO 20007KT 10SM CLR 12/07 A2979 RMK AO2
Loading
Personal Weather Stations






























Interactive Weather Map New forecast layout! Learn more

10-Day Weather Forecast

Advertisements
Track Severe Weather on mobile